Time;durP1;ratioP1;P1;durP2;ratioP2;P2;SDS_P1;SDS_P2;PMS_P1;PMS_P2;Temp;Humidity;BMP_temperature;BMP_pressure;BME280_temperature;BME280_humidity;BME280_pressure;Samples;Min_cycle;Max_cycle;Signal;HPM_P1;HPM_P2
2023/07/24 00:01:50;;;;;;;12.38;11.18;;;;;;;;;;5012270;28;20033;-74
2023/07/24 00:04:16;;;;;;;12.75;11.10;;;;;;;;;;5033601;28;20033;-74
2023/07/24 00:06:41;;;;;;;12.57;11.27;;;;;;;;;;5024291;28;20527;-75
2023/07/24 00:09:07;;;;;;;13.15;11.75;;;;;;;;;;5005830;28;20163;-75
2023/07/24 00:11:33;;;;;;;13.15;11.73;;;;;;;;;;5028612;28;20041;-76
2023/07/24 00:13:59;;;;;;;13.18;11.77;;;;;;;;;;5025146;28;20030;-75
2023/07/24 00:16:24;;;;;;;14.40;11.82;;;;;;;;;;5029649;28;20033;-75
2023/07/24 00:18:50;;;;;;;13.00;11.65;;;;;;;;;;5037011;28;20056;-75
2023/07/24 00:21:15;;;;;;;13.10;11.25;;;;;;;;;;5037509;28;20140;-75
2023/07/24 00:23:41;;;;;;;12.80;11.50;;;;;;;;;;5037731;28;20198;-75
2023/07/24 00:26:06;;;;;;;12.80;11.50;;;;;;;;;;5005501;28;20060;-75
2023/07/24 00:28:32;;;;;;;12.70;11.40;;;;;;;;;;5004258;28;20420;-75
2023/07/24 00:30:58;;;;;;;12.43;11.13;;;;;;;;;;5011228;28;20045;-75
2023/07/24 00:33:24;;;;;;;14.45;12.02;;;;;;;;;;5017850;28;20037;-74
2023/07/24 00:35:50;;;;;;;12.35;11.15;;;;;;;;;;5010893;28;20750;-75
2023/07/24 00:38:15;;;;;;;12.95;11.63;;;;;;;;;;5020390;28;20055;-75
2023/07/24 00:40:44;;;;;;;14.60;11.57;;;;;;;;;;5030095;28;20029;-75
2023/07/24 00:43:11;;;;;;;13.15;11.77;;;;;;;;;;5004000;28;20044;-75
2023/07/24 00:45:36;;;;;;;12.88;11.57;;;;;;;;;;5029431;28;20029;-75
2023/07/24 00:48:02;;;;;;;13.77;12.07;;;;;;;;;;5007113;28;20239;-75
2023/07/24 00:50:29;;;;;;;12.68;11.40;;;;;;;;;;5013995;28;20100;-75
2023/07/24 00:52:54;;;;;;;12.52;11.02;;;;;;;;;;5007790;28;20396;-75
2023/07/24 00:55:20;;;;;;;13.27;10.85;;;;;;;;;;5006149;28;20725;-75
2023/07/24 00:57:46;;;;;;;14.32;11.38;;;;;;;;;;5007841;28;20037;-75
2023/07/24 01:00:12;;;;;;;12.98;11.07;;;;;;;;;;5025894;28;20040;-75
2023/07/24 01:02:38;;;;;;;11.68;10.48;;;;;;;;;;5003575;28;20127;-75
2023/07/24 01:05:03;;;;;;;12.00;10.90;;;;;;;;;;5009693;28;20128;-76
2023/07/24 01:07:30;;;;;;;12.52;11.25;;;;;;;;;;5006389;28;20049;-75
2023/07/24 01:09:56;;;;;;;12.93;10.90;;;;;;;;;;5020531;28;20107;-75
2023/07/24 01:12:40;;;;;;;13.98;11.30;;;;;;;;;;5034075;28;20459;-75
2023/07/24 01:15:14;;;;;;;11.95;10.95;;;;;;;;;;5012929;28;20128;-74
2023/07/24 01:17:47;;;;;;;16.85;11.93;;;;;;;;;;5029642;28;20073;-74
2023/07/24 01:20:16;;;;;;;15.35;12.45;;;;;;;;;;4991113;28;20029;-74
2023/07/24 01:22:55;;;;;;;12.95;10.82;;;;;;;;;;5036372;28;20033;-75
2023/07/24 01:25:35;;;;;;;12.98;11.68;;;;;;;;;;5007721;28;20036;-74
2023/07/24 01:28:01;;;;;;;11.70;10.48;;;;;;;;;;5031110;28;20032;-74
2023/07/24 01:30:27;;;;;;;14.02;12.07;;;;;;;;;;5012911;28;20443;-75
2023/07/24 01:32:52;;;;;;;12.23;10.98;;;;;;;;;;5016985;28;20392;-75
2023/07/24 01:35:18;;;;;;;13.75;11.80;;;;;;;;;;5014485;28;20554;-75
2023/07/24 01:37:46;;;;;;;13.45;11.82;;;;;;;;;;5024363;28;20029;-75
2023/07/24 01:40:12;;;;;;;14.02;11.38;;;;;;;;;;5025651;28;20656;-75
2023/07/24 01:42:38;;;;;;;12.35;11.07;;;;;;;;;;5018555;28;20041;-75
2023/07/24 01:45:04;;;;;;;13.95;12.02;;;;;;;;;;5035046;28;20040;-75
2023/07/24 01:47:31;;;;;;;12.77;11.13;;;;;;;;;;5010292;28;20405;-74
2023/07/24 01:49:57;;;;;;;13.00;11.70;;;;;;;;;;5007255;28;20033;-76
2023/07/24 01:52:23;;;;;;;12.25;10.38;;;;;;;;;;5010943;28;20036;-66
2023/07/24 01:54:49;;;;;;;12.57;11.38;;;;;;;;;;5006273;28;20504;-66
2023/07/24 01:57:15;;;;;;;13.43;12.13;;;;;;;;;;5007040;28;20041;-66
2023/07/24 01:59:41;;;;;;;16.02;11.68;;;;;;;;;;5006229;28;20040;-66
2023/07/24 02:02:06;;;;;;;13.90;12.13;;;;;;;;;;5006944;28;20045;-66
2023/07/24 02:04:32;;;;;;;13.35;12.05;;;;;;;;;;5023942;28;20049;-64
2023/07/24 02:06:57;;;;;;;14.20;11.95;;;;;;;;;;5006745;28;20167;-65
2023/07/24 02:09:23;;;;;;;13.18;11.75;;;;;;;;;;5006258;28;20572;-65
2023/07/24 02:11:48;;;;;;;11.38;10.30;;;;;;;;;;5006548;28;20441;-65
2023/07/24 02:14:16;;;;;;;12.95;11.65;;;;;;;;;;4995899;28;20497;-64
2023/07/24 02:16:42;;;;;;;15.88;11.88;;;;;;;;;;5006625;28;20030;-64
2023/07/24 02:19:08;;;;;;;13.45;12.10;;;;;;;;;;5009236;28;20040;-65
2023/07/24 02:21:34;;;;;;;16.38;12.30;;;;;;;;;;5006436;28;20041;-65
2023/07/24 02:23:59;;;;;;;13.00;11.70;;;;;;;;;;5006122;28;20037;-64
2023/07/24 02:26:25;;;;;;;12.07;10.95;;;;;;;;;;5009557;28;20515;-65
2023/07/24 02:28:50;;;;;;;12.40;11.10;;;;;;;;;;4999245;28;20041;-65
2023/07/24 02:31:16;;;;;;;13.02;11.73;;;;;;;;;;5023175;28;20060;-65
2023/07/24 02:33:42;;;;;;;14.02;11.95;;;;;;;;;;5026206;28;20030;-65
2023/07/24 02:36:07;;;;;;;14.68;11.90;;;;;;;;;;5003771;23;20046;-68
2023/07/24 02:38:33;;;;;;;13.73;12.20;;;;;;;;;;4992074;28;20064;-70
2023/07/24 02:40:59;;;;;;;13.23;11.90;;;;;;;;;;4993935;28;20042;-68
2023/07/24 02:43:24;;;;;;;12.68;11.40;;;;;;;;;;4991706;28;20038;-70
2023/07/24 02:45:50;;;;;;;13.60;12.30;;;;;;;;;;4986910;28;20052;-70
2023/07/24 02:48:16;;;;;;;14.70;11.55;;;;;;;;;;5003477;28;20037;-70
2023/07/24 02:50:41;;;;;;;12.93;11.65;;;;;;;;;;4991032;28;20038;-69
2023/07/24 02:53:07;;;;;;;13.90;12.50;;;;;;;;;;5008092;28;20033;-70
2023/07/24 02:55:32;;;;;;;12.77;11.48;;;;;;;;;;4991323;28;20065;-69
2023/07/24 02:57:58;;;;;;;14.02;12.43;;;;;;;;;;4986021;28;20060;-69
2023/07/24 03:00:24;;;;;;;12.85;11.45;;;;;;;;;;5006646;28;20037;-70
2023/07/24 03:02:50;;;;;;;13.05;11.50;;;;;;;;;;5005257;28;20096;-69
2023/07/24 03:05:16;;;;;;;13.30;11.90;;;;;;;;;;5005956;28;20961;-69
2023/07/24 03:07:41;;;;;;;13.50;12.10;;;;;;;;;;5000110;28;20053;-69
2023/07/24 03:10:07;;;;;;;14.45;12.25;;;;;;;;;;4990220;28;20115;-70
2023/07/24 03:12:33;;;;;;;12.80;11.40;;;;;;;;;;5007868;28;20080;-69
2023/07/24 03:14:59;;;;;;;12.95;11.65;;;;;;;;;;4991278;28;20442;-69
2023/07/24 03:17:24;;;;;;;13.60;12.13;;;;;;;;;;4989976;28;20041;-69
2023/07/24 03:19:50;;;;;;;13.25;11.88;;;;;;;;;;4990086;28;20083;-69
2023/07/24 03:22:15;;;;;;;12.55;11.35;;;;;;;;;;4990649;28;20053;-69
2023/07/24 03:24:41;;;;;;;13.63;12.23;;;;;;;;;;4988965;28;20081;-69
2023/07/24 03:27:06;;;;;;;13.77;11.82;;;;;;;;;;4989601;28;20080;-69
2023/07/24 03:29:32;;;;;;;13.55;12.15;;;;;;;;;;5007023;28;20038;-69
2023/07/24 03:31:58;;;;;;;13.70;12.18;;;;;;;;;;5007404;28;20037;-69
2023/07/24 03:34:25;;;;;;;14.73;12.75;;;;;;;;;;4989215;28;20041;-69
2023/07/24 03:36:50;;;;;;;14.85;12.02;;;;;;;;;;5007074;28;20022;-69
2023/07/24 03:39:16;;;;;;;13.45;12.10;;;;;;;;;;4989272;28;20640;-69
2023/07/24 03:41:42;;;;;;;14.30;11.00;;;;;;;;;;5004604;28;20536;-69
2023/07/24 03:44:08;;;;;;;13.23;11.93;;;;;;;;;;5007023;28;20048;-69
2023/07/24 03:46:34;;;;;;;13.30;11.93;;;;;;;;;;4992007;28;20030;-70
2023/07/24 03:49:00;;;;;;;13.50;12.10;;;;;;;;;;5004724;28;20026;-70
2023/07/24 03:51:26;;;;;;;14.48;11.57;;;;;;;;;;5006338;28;20049;-69
2023/07/24 03:53:51;;;;;;;13.63;11.27;;;;;;;;;;5007087;28;20038;-69
2023/07/24 03:56:17;;;;;;;13.45;11.57;;;;;;;;;;5006576;28;20480;-69
2023/07/24 03:58:43;;;;;;;13.73;12.25;;;;;;;;;;5004443;28;20038;-69
2023/07/24 04:01:09;;;;;;;14.30;11.98;;;;;;;;;;5005645;28;20048;-69
2023/07/24 04:03:35;;;;;;;15.10;13.00;;;;;;;;;;5006781;28;20045;-69
2023/07/24 04:06:01;;;;;;;14.75;12.07;;;;;;;;;;5003987;28;20069;-69
2023/07/24 04:08:27;;;;;;;15.57;12.48;;;;;;;;;;5006222;28;20575;-69
2023/07/24 04:10:52;;;;;;;14.68;12.60;;;;;;;;;;5006274;28;20036;-69
2023/07/24 04:13:18;;;;;;;14.80;11.82;;;;;;;;;;5006523;28;20409;-69
2023/07/24 04:15:44;;;;;;;13.85;12.32;;;;;;;;;;5005373;28;20045;-69
2023/07/24 04:18:10;;;;;;;13.88;12.45;;;;;;;;;;5006243;28;20045;-69
2023/07/24 04:20:37;;;;;;;12.90;11.60;;;;;;;;;;5006384;28;20104;-69
2023/07/24 04:23:03;;;;;;;13.50;12.10;;;;;;;;;;5005055;28;20052;-69
2023/07/24 04:25:28;;;;;;;13.38;11.93;;;;;;;;;;4988490;28;20428;-69
2023/07/24 04:27:54;;;;;;;15.00;12.23;;;;;;;;;;4989018;28;20136;-69
2023/07/24 04:30:19;;;;;;;14.65;13.02;;;;;;;;;;5005883;28;20129;-69
2023/07/24 04:32:46;;;;;;;13.90;12.40;;;;;;;;;;5003752;28;20116;-69
2023/07/24 04:35:11;;;;;;;13.65;12.25;;;;;;;;;;5003689;28;20046;-69
2023/07/24 04:37:37;;;;;;;13.35;11.95;;;;;;;;;;5007158;28;20026;-69
2023/07/24 04:40:03;;;;;;;13.88;12.30;;;;;;;;;;5007108;28;20033;-69
2023/07/24 04:42:29;;;;;;;13.85;12.32;;;;;;;;;;5007974;28;20034;-69
2023/07/24 04:44:54;;;;;;;13.77;12.38;;;;;;;;;;5015953;28;20052;-69
2023/07/24 04:47:20;;;;;;;13.90;12.48;;;;;;;;;;5007561;28;20060;-70
2023/07/24 04:49:45;;;;;;;14.13;12.70;;;;;;;;;;5005660;28;20164;-69
2023/07/24 04:52:11;;;;;;;16.90;13.00;;;;;;;;;;5006705;28;20049;-69
2023/07/24 04:54:36;;;;;;;14.65;13.15;;;;;;;;;;5005844;28;20088;-69
2023/07/24 04:57:02;;;;;;;14.13;12.68;;;;;;;;;;5009563;28;20034;-69
2023/07/24 04:59:28;;;;;;;13.77;12.38;;;;;;;;;;5003821;28;20046;-69
2023/07/24 05:01:53;;;;;;;14.15;12.75;;;;;;;;;;5005520;28;20455;-69
2023/07/24 05:04:19;;;;;;;14.85;13.00;;;;;;;;;;5005082;28;20045;-69
2023/07/24 05:06:44;;;;;;;13.43;12.13;;;;;;;;;;5003704;28;20444;-70
2023/07/24 05:09:10;;;;;;;13.98;12.57;;;;;;;;;;4987897;28;20037;-69
2023/07/24 05:11:35;;;;;;;13.90;12.50;;;;;;;;;;5004580;28;20563;-69
2023/07/24 05:14:01;;;;;;;13.68;12.38;;;;;;;;;;5004273;28;20048;-69
2023/07/24 05:16:27;;;;;;;15.20;12.50;;;;;;;;;;5005299;28;20716;-70
2023/07/24 05:18:52;;;;;;;14.10;12.50;;;;;;;;;;5004799;28;20034;-69
2023/07/24 05:21:18;;;;;;;15.13;13.15;;;;;;;;;;5004897;28;20044;-70
2023/07/24 05:23:43;;;;;;;14.50;13.02;;;;;;;;;;5004170;28;20508;-71
2023/07/24 05:26:09;;;;;;;17.13;12.38;;;;;;;;;;5005322;28;20032;-75
2023/07/24 05:28:34;;;;;;;16.13;13.32;;;;;;;;;;5002818;28;20109;-77
2023/07/24 05:31:02;;;;;;;14.80;13.20;;;;;;;;;;4987865;28;20062;-78
2023/07/24 05:33:27;;;;;;;13.57;12.27;;;;;;;;;;5007248;28;20034;-77
2023/07/24 05:35:58;;;;;;;14.27;12.85;;;;;;;;;;5009895;28;20030;-77
2023/07/24 05:38:23;;;;;;;14.13;12.60;;;;;;;;;;5004854;28;20353;-77
2023/07/24 05:40:59;;;;;;;16.60;12.70;;;;;;;;;;5004518;28;20481;-78
2023/07/24 05:43:25;;;;;;;14.57;13.07;;;;;;;;;;5005243;28;20033;-78
2023/07/24 05:45:52;;;;;;;14.23;12.68;;;;;;;;;;5000780;28;20068;-78
2023/07/24 05:48:17;;;;;;;14.70;13.13;;;;;;;;;;5004895;28;20107;-78
2023/07/24 05:50:43;;;;;;;14.82;13.27;;;;;;;;;;5006137;28;20258;-78
2023/07/24 05:53:09;;;;;;;14.55;13.05;;;;;;;;;;4987319;28;20043;-77
2023/07/24 05:55:35;;;;;;;15.10;13.02;;;;;;;;;;5004469;28;20281;-78
2023/07/24 05:58:00;;;;;;;14.82;12.70;;;;;;;;;;5003690;28;20037;-77
2023/07/24 06:00:26;;;;;;;15.52;13.70;;;;;;;;;;4986995;28;20065;-77
2023/07/24 06:02:53;;;;;;;17.05;12.80;;;;;;;;;;4983793;28;20069;-77
2023/07/24 06:05:19;;;;;;;14.98;13.45;;;;;;;;;;5004680;28;20038;-77
2023/07/24 06:07:45;;;;;;;15.02;13.10;;;;;;;;;;5003379;28;20050;-78
2023/07/24 06:10:11;;;;;;;15.20;12.70;;;;;;;;;;5004862;28;20044;-78
2023/07/24 06:12:37;;;;;;;14.18;12.77;;;;;;;;;;4997902;28;20041;-78
2023/07/24 06:15:03;;;;;;;14.68;13.18;;;;;;;;;;5010749;28;20029;-78
2023/07/24 06:17:29;;;;;;;17.23;13.05;;;;;;;;;;5002083;28;20034;-78
2023/07/24 06:19:54;;;;;;;14.38;12.93;;;;;;;;;;5004734;28;20034;-78
2023/07/24 06:22:20;;;;;;;19.25;13.90;;;;;;;;;;5005251;28;20096;-78
2023/07/24 06:24:46;;;;;;;16.30;13.55;;;;;;;;;;5007365;28;20100;-78
2023/07/24 06:27:11;;;;;;;15.68;13.50;;;;;;;;;;5008362;28;20045;-77
2023/07/24 06:29:37;;;;;;;17.50;13.13;;;;;;;;;;5007073;28;20036;-77
2023/07/24 06:32:03;;;;;;;14.40;12.85;;;;;;;;;;5008407;28;20108;-77
2023/07/24 06:34:28;;;;;;;16.73;13.43;;;;;;;;;;4988222;28;20125;-77
2023/07/24 06:36:54;;;;;;;14.60;13.13;;;;;;;;;;5009551;28;20060;-77
2023/07/24 06:39:20;;;;;;;15.27;13.57;;;;;;;;;;5008405;28;20715;-77
2023/07/24 06:41:46;;;;;;;14.85;12.98;;;;;;;;;;5004390;28;20477;-77
2023/07/24 06:44:11;;;;;;;17.67;12.90;;;;;;;;;;5007940;28;20040;-77
2023/07/24 06:46:37;;;;;;;14.60;12.77;;;;;;;;;;5006235;28;20033;-77
2023/07/24 06:49:03;;;;;;;17.55;13.10;;;;;;;;;;5007622;28;20046;-77
2023/07/24 06:51:28;;;;;;;14.63;12.50;;;;;;;;;;5008180;28;20054;-77
2023/07/24 06:53:54;;;;;;;14.30;12.80;;;;;;;;;;5006524;28;20034;-77
2023/07/24 06:56:19;;;;;;;13.85;12.45;;;;;;;;;;5001488;28;20048;-77
2023/07/24 06:58:45;;;;;;;13.85;12.45;;;;;;;;;;5006505;28;20512;-77
2023/07/24 07:01:11;;;;;;;13.85;12.45;;;;;;;;;;5007906;28;20421;-78
2023/07/24 07:03:36;;;;;;;14.75;12.75;;;;;;;;;;5001417;28;20067;-78
2023/07/24 07:06:02;;;;;;;14.60;13.07;;;;;;;;;;5006839;28;20085;-77
2023/07/24 07:08:29;;;;;;;14.30;12.80;;;;;;;;;;5006231;28;20136;-78
2023/07/24 07:10:59;;;;;;;14.57;13.07;;;;;;;;;;5008101;28;20042;-77
2023/07/24 07:13:25;;;;;;;14.55;13.05;;;;;;;;;;5006220;28;20030;-77
2023/07/24 07:15:50;;;;;;;17.40;13.60;;;;;;;;;;5004654;28;20037;-77
2023/07/24 07:18:16;;;;;;;16.98;13.32;;;;;;;;;;5007329;28;20041;-78
2023/07/24 07:20:49;;;;;;;16.98;13.38;;;;;;;;;;5007699;28;20531;-77
2023/07/24 07:23:15;;;;;;;15.45;13.45;;;;;;;;;;5008121;28;20057;-77
2023/07/24 07:25:43;;;;;;;15.75;14.15;;;;;;;;;;5006208;28;20123;-78
2023/07/24 07:28:09;;;;;;;17.90;13.15;;;;;;;;;;5007511;28;20033;-78
2023/07/24 07:30:35;;;;;;;15.20;13.60;;;;;;;;;;5004673;28;20041;-77
2023/07/24 07:33:00;;;;;;;14.48;13.07;;;;;;;;;;5006138;28;20032;-78
2023/07/24 07:35:26;;;;;;;15.13;13.50;;;;;;;;;;4988664;28;20124;-78
2023/07/24 07:37:52;;;;;;;16.40;13.50;;;;;;;;;;4998516;28;20038;-78
2023/07/24 07:40:17;;;;;;;16.95;13.05;;;;;;;;;;5004991;28;20450;-78
2023/07/24 07:42:44;;;;;;;16.13;13.82;;;;;;;;;;4999530;28;20149;-78
2023/07/24 07:45:10;;;;;;;18.33;13.57;;;;;;;;;;5004445;28;20037;-78
2023/07/24 07:47:36;;;;;;;15.43;13.23;;;;;;;;;;5007058;28;20038;-78
2023/07/24 07:50:02;;;;;;;15.70;14.10;;;;;;;;;;5005575;28;20049;-78
2023/07/24 07:52:27;;;;;;;14.52;13.07;;;;;;;;;;5015481;28;20054;-78
2023/07/24 07:54:53;;;;;;;16.33;13.48;;;;;;;;;;5007363;28;20030;-78
2023/07/24 07:57:18;;;;;;;14.68;13.18;;;;;;;;;;5007134;28;20504;-78
2023/07/24 07:59:44;;;;;;;17.70;13.73;;;;;;;;;;4985055;28;20034;-78
2023/07/24 08:02:10;;;;;;;17.15;13.00;;;;;;;;;;5003836;28;20038;-78
2023/07/24 08:04:35;;;;;;;15.07;13.57;;;;;;;;;;5007088;28;20615;-78
2023/07/24 08:07:01;;;;;;;14.85;13.38;;;;;;;;;;5006493;28;20583;-78
2023/07/24 08:09:26;;;;;;;14.13;12.70;;;;;;;;;;5010956;28;20127;-77
2023/07/24 08:11:52;;;;;;;15.15;13.40;;;;;;;;;;5006887;28;20037;-78
2023/07/24 08:14:18;;;;;;;15.90;13.05;;;;;;;;;;5006875;28;20120;-78
2023/07/24 08:16:43;;;;;;;14.55;12.27;;;;;;;;;;5007107;28;20055;-78
2023/07/24 08:19:09;;;;;;;16.65;12.65;;;;;;;;;;5003054;28;20040;-78
2023/07/24 08:21:35;;;;;;;14.52;12.82;;;;;;;;;;4970984;28;20052;-78
2023/07/24 08:24:02;;;;;;;18.33;12.95;;;;;;;;;;5004227;28;20048;-77
2023/07/24 08:26:27;;;;;;;17.15;12.80;;;;;;;;;;5003098;28;20042;-78
2023/07/24 08:28:53;;;;;;;14.45;12.95;;;;;;;;;;5003912;28;20030;-77
2023/07/24 08:31:19;;;;;;;14.02;12.52;;;;;;;;;;5002577;28;20405;-77
2023/07/24 08:33:44;;;;;;;16.63;12.77;;;;;;;;;;5008647;28;20503;-76
2023/07/24 08:36:11;;;;;;;14.48;12.30;;;;;;;;;;5006310;28;20034;-76
2023/07/24 08:38:37;;;;;;;14.05;12.68;;;;;;;;;;5004921;28;20493;-76
2023/07/24 08:41:07;;;;;;;17.02;12.93;;;;;;;;;;4985849;28;20042;-76
2023/07/24 08:43:34;;;;;;;14.40;12.95;;;;;;;;;;5003648;28;20445;-76
2023/07/24 08:46:01;;;;;;;13.88;12.57;;;;;;;;;;5000168;28;20042;-76
2023/07/24 08:48:38;;;;;;;14.35;12.88;;;;;;;;;;5003035;28;20508;-76
2023/07/24 08:51:16;;;;;;;15.27;12.95;;;;;;;;;;5003394;28;20084;-76
2023/07/24 08:53:43;;;;;;;16.65;13.75;;;;;;;;;;4988833;28;20411;-76
2023/07/24 08:56:33;;;;;;;14.95;13.43;;;;;;;;;;5005342;28;20030;-76
2023/07/24 08:58:59;;;;;;;15.68;14.15;;;;;;;;;;4993478;28;20054;-73
2023/07/24 09:01:25;;;;;;;15.80;14.13;;;;;;;;;;5001910;28;20426;-73
2023/07/24 09:03:51;;;;;;;14.90;13.45;;;;;;;;;;5001102;28;20065;-73
2023/07/24 09:06:16;;;;;;;15.15;13.45;;;;;;;;;;5002503;28;20189;-73
2023/07/24 09:08:43;;;;;;;15.82;13.65;;;;;;;;;;5002187;28;20080;-73
2023/07/24 09:11:10;;;;;;;26.33;15.25;;;;;;;;;;5002570;28;20053;-73
2023/07/24 09:13:37;;;;;;;18.23;13.60;;;;;;;;;;5000956;28;20076;-73
2023/07/24 09:16:04;;;;;;;15.73;13.52;;;;;;;;;;5003240;28;20051;-73
2023/07/24 09:18:43;;;;;;;21.08;12.80;;;;;;;;;;5005208;28;20045;-73
2023/07/24 09:21:14;;;;;;;14.07;12.57;;;;;;;;;;5001321;28;20038;-73
2023/07/24 09:23:40;;;;;;;14.10;12.70;;;;;;;;;;5001612;28;20037;-74
2023/07/24 09:26:07;;;;;;;14.48;12.07;;;;;;;;;;5002114;28;20038;-74
2023/07/24 09:28:33;;;;;;;18.23;12.40;;;;;;;;;;4999053;28;20133;-74
2023/07/24 09:31:03;;;;;;;13.43;12.02;;;;;;;;;;4999521;28;20128;-74
2023/07/24 09:33:39;;;;;;;14.02;12.45;;;;;;;;;;5002123;28;20216;-74
2023/07/24 09:36:10;;;;;;;13.10;11.75;;;;;;;;;;5002505;28;20417;-73
2023/07/24 09:38:37;;;;;;;13.68;11.95;;;;;;;;;;5000811;28;20116;-73
2023/07/24 09:41:03;;;;;;;15.90;12.25;;;;;;;;;;5001227;28;20034;-73
2023/07/24 09:43:29;;;;;;;13.60;12.18;;;;;;;;;;5000616;28;20034;-74
2023/07/24 09:45:56;;;;;;;13.23;11.15;;;;;;;;;;5001925;28;20026;-74
2023/07/24 09:48:25;;;;;;;13.20;11.88;;;;;;;;;;5001458;28;20119;-74
2023/07/24 09:50:59;;;;;;;14.45;12.60;;;;;;;;;;4996609;28;20064;-74
2023/07/24 09:53:40;;;;;;;12.63;11.43;;;;;;;;;;5001530;28;20049;-73
2023/07/24 09:56:08;;;;;;;13.20;11.90;;;;;;;;;;5001823;28;20119;-74
2023/07/24 09:58:35;;;;;;;13.25;11.85;;;;;;;;;;5003322;28;20049;-73
2023/07/24 10:01:08;;;;;;;13.35;12.00;;;;;;;;;;5004697;28;20032;-73
2023/07/24 10:03:35;;;;;;;13.38;11.02;;;;;;;;;;5004536;28;20595;-73
2023/07/24 10:06:01;;;;;;;12.82;11.52;;;;;;;;;;5003642;28;20386;-74
2023/07/24 10:08:27;;;;;;;13.82;12.40;;;;;;;;;;5000121;28;20107;-73
2023/07/24 10:10:53;;;;;;;15.02;12.38;;;;;;;;;;5002295;28;20481;-74
2023/07/24 10:13:21;;;;;;;13.73;12.05;;;;;;;;;;5003760;28;20045;-73
2023/07/24 10:15:48;;;;;;;12.73;11.30;;;;;;;;;;5002664;28;20076;-73
2023/07/24 10:18:18;;;;;;;13.68;12.13;;;;;;;;;;5001214;28;20469;-73
2023/07/24 10:20:43;;;;;;;13.30;11.98;;;;;;;;;;5002462;28;20404;-72
2023/07/24 10:23:11;;;;;;;13.07;11.77;;;;;;;;;;5002253;28;20044;-72
2023/07/24 10:25:41;;;;;;;12.43;11.25;;;;;;;;;;5000321;28;20068;-73
2023/07/24 10:28:10;;;;;;;13.88;12.45;;;;;;;;;;5002274;28;20497;-73
2023/07/24 10:30:41;;;;;;;13.27;12.07;;;;;;;;;;5000644;28;20619;-73
2023/07/24 10:33:33;;;;;;;14.25;12.90;;;;;;;;;;5001058;28;20037;-73
2023/07/24 10:36:09;;;;;;;16.17;14.52;;;;;;;;;;5002324;28;20094;-74
2023/07/24 10:38:40;;;;;;;17.02;15.52;;;;;;;;;;5005310;28;20034;-73
2023/07/24 10:41:07;;;;;;;17.73;16.20;;;;;;;;;;5004817;28;20033;-74
2023/07/24 10:44:02;;;;;;;18.30;16.38;;;;;;;;;;5000470;28;20542;-73
2023/07/24 10:46:40;;;;;;;17.17;15.55;;;;;;;;;;4989334;28;20161;-73
2023/07/24 10:49:07;;;;;;;17.40;15.57;;;;;;;;;;5001520;28;20048;-73
2023/07/24 10:51:34;;;;;;;17.85;15.60;;;;;;;;;;5001180;28;20042;-73
2023/07/24 10:53:59;;;;;;;15.98;14.48;;;;;;;;;;5001706;28;20042;-72
2023/07/24 10:56:25;;;;;;;16.15;14.65;;;;;;;;;;5000652;28;20204;-73
2023/07/24 10:58:51;;;;;;;16.92;15.18;;;;;;;;;;5001718;28;20029;-73
2023/07/24 11:01:17;;;;;;;16.17;14.55;;;;;;;;;;5001042;28;20141;-73
2023/07/24 11:03:44;;;;;;;16.65;14.88;;;;;;;;;;5001846;28;20422;-74
2023/07/24 11:06:15;;;;;;;17.40;15.68;;;;;;;;;;5001953;28;20029;-73
2023/07/24 11:08:41;;;;;;;18.02;15.63;;;;;;;;;;4999743;28;20041;-74
2023/07/24 11:11:08;;;;;;;17.88;16.27;;;;;;;;;;5000671;28;20034;-74
2023/07/24 11:13:34;;;;;;;16.67;15.20;;;;;;;;;;5004644;28;20558;-74
2023/07/24 11:16:07;;;;;;;17.15;15.65;;;;;;;;;;5003150;28;20032;-75
2023/07/24 11:18:48;;;;;;;17.30;15.60;;;;;;;;;;5005320;28;20976;-74
2023/07/24 11:21:16;;;;;;;17.08;15.55;;;;;;;;;;5006561;28;20195;-75
2023/07/24 11:23:52;;;;;;;16.15;14.75;;;;;;;;;;5006457;28;20044;-75
2023/07/24 11:26:20;;;;;;;17.10;15.68;;;;;;;;;;5006259;28;20041;-75
2023/07/24 11:28:46;;;;;;;17.77;16.17;;;;;;;;;;5005009;28;20108;-75
2023/07/24 11:31:11;;;;;;;17.48;16.05;;;;;;;;;;5006121;28;20454;-75
2023/07/24 11:33:38;;;;;;;17.90;16.13;;;;;;;;;;5004934;28;20029;-75
2023/07/24 11:36:04;;;;;;;17.13;15.23;;;;;;;;;;5003913;28;20049;-75
2023/07/24 11:38:29;;;;;;;17.52;15.93;;;;;;;;;;5000668;28;20140;-75
2023/07/24 11:40:55;;;;;;;17.38;15.57;;;;;;;;;;5005845;28;20121;-75
2023/07/24 11:43:24;;;;;;;16.90;15.38;;;;;;;;;;5005531;28;20038;-75
2023/07/24 11:45:53;;;;;;;16.65;15.25;;;;;;;;;;5003380;28;20037;-75
2023/07/24 11:48:20;;;;;;;16.58;15.18;;;;;;;;;;5005169;28;20044;-75
2023/07/24 11:50:56;;;;;;;17.23;15.73;;;;;;;;;;5005193;28;20366;-76
2023/07/24 11:53:26;;;;;;;16.60;15.10;;;;;;;;;;5002879;28;20042;-76
2023/07/24 11:55:53;;;;;;;21.10;15.00;;;;;;;;;;4987785;28;20751;-75
2023/07/24 11:58:20;;;;;;;16.77;15.15;;;;;;;;;;5003527;28;20080;-75
2023/07/24 12:00:51;;;;;;;16.17;14.77;;;;;;;;;;5004913;28;20073;-75
2023/07/24 12:03:35;;;;;;;16.35;14.77;;;;;;;;;;5004350;28;20044;-75
2023/07/24 12:06:02;;;;;;;16.45;14.95;;;;;;;;;;5004029;28;20409;-75
2023/07/24 12:08:33;;;;;;;16.55;14.80;;;;;;;;;;5004742;28;20609;-75
2023/07/24 12:10:59;;;;;;;16.20;14.73;;;;;;;;;;5003947;28;20469;-74
2023/07/24 12:13:25;;;;;;;16.13;14.77;;;;;;;;;;5005259;28;20045;-74
2023/07/24 12:15:50;;;;;;;16.05;14.65;;;;;;;;;;5003317;28;20217;-74
2023/07/24 12:18:16;;;;;;;16.90;15.40;;;;;;;;;;5000834;28;20041;-74
2023/07/24 12:20:41;;;;;;;16.90;15.50;;;;;;;;;;5004220;28;20044;-75
2023/07/24 12:23:07;;;;;;;16.83;15.35;;;;;;;;;;5004970;28;20485;-75
2023/07/24 12:25:32;;;;;;;16.83;15.30;;;;;;;;;;5004434;28;20038;-74
2023/07/24 12:27:58;;;;;;;16.85;15.45;;;;;;;;;;5003293;28;20087;-75
2023/07/24 12:30:24;;;;;;;16.90;15.10;;;;;;;;;;5004364;28;20061;-75
2023/07/24 12:32:50;;;;;;;15.38;14.02;;;;;;;;;;5003516;28;20045;-75
2023/07/24 12:35:16;;;;;;;16.75;15.35;;;;;;;;;;5004936;28;20033;-74
2023/07/24 12:37:42;;;;;;;17.38;15.68;;;;;;;;;;5001007;28;20540;-74
2023/07/24 12:40:08;;;;;;;16.42;14.90;;;;;;;;;;5002768;28;20125;-74
2023/07/24 12:42:34;;;;;;;16.38;14.88;;;;;;;;;;5004013;28;20034;-74
2023/07/24 12:45:02;;;;;;;16.75;15.23;;;;;;;;;;5003385;28;20087;-74
2023/07/24 12:47:28;;;;;;;16.05;14.63;;;;;;;;;;4985630;28;20042;-74
2023/07/24 12:49:55;;;;;;;15.63;14.07;;;;;;;;;;5004070;28;20034;-74
2023/07/24 12:52:21;;;;;;;17.08;15.38;;;;;;;;;;5003640;28;20048;-73
2023/07/24 12:54:46;;;;;;;16.40;14.73;;;;;;;;;;5003566;28;20026;-74
2023/07/24 12:57:12;;;;;;;15.55;14.02;;;;;;;;;;5004182;28;20045;-73
2023/07/24 12:59:38;;;;;;;15.52;14.05;;;;;;;;;;4997469;28;20053;-73
2023/07/24 13:02:03;;;;;;;14.73;13.48;;;;;;;;;;5003436;28;20099;-73
2023/07/24 13:04:29;;;;;;;14.80;13.05;;;;;;;;;;5003875;28;20088;-74
2023/07/24 13:06:54;;;;;;;14.35;13.02;;;;;;;;;;5003614;28;20033;-73
2023/07/24 13:09:20;;;;;;;15.30;13.88;;;;;;;;;;5002444;28;20032;-73
2023/07/24 13:11:50;;;;;;;14.90;13.60;;;;;;;;;;5002297;28;20034;-73
2023/07/24 13:14:16;;;;;;;14.60;13.43;;;;;;;;;;5002356;28;20457;-73
2023/07/24 13:16:42;;;;;;;15.05;13.65;;;;;;;;;;4999937;28;20879;-73
2023/07/24 13:19:07;;;;;;;14.70;13.55;;;;;;;;;;4998780;28;20034;-73
2023/07/24 13:21:33;;;;;;;15.02;13.63;;;;;;;;;;4999305;28;20034;-72
2023/07/24 13:23:58;;;;;;;14.88;13.55;;;;;;;;;;5000268;28;20565;-73
2023/07/24 13:26:24;;;;;;;13.10;12.15;;;;;;;;;;4998550;28;20053;-73
2023/07/24 13:28:50;;;;;;;15.00;13.60;;;;;;;;;;4998781;28;20119;-73
2023/07/24 13:31:18;;;;;;;13.85;12.75;;;;;;;;;;4998918;28;20093;-73
2023/07/24 13:33:45;;;;;;;13.82;12.63;;;;;;;;;;4998056;28;20026;-73
2023/07/24 13:36:14;;;;;;;14.40;13.30;;;;;;;;;;4997244;28;20042;-72
2023/07/24 13:38:41;;;;;;;13.98;12.77;;;;;;;;;;4998223;28;20412;-73
2023/07/24 13:41:08;;;;;;;14.27;12.98;;;;;;;;;;4998741;28;20034;-73
2023/07/24 13:43:33;;;;;;;13.73;12.63;;;;;;;;;;4999920;28;20033;-73
2023/07/24 13:45:59;;;;;;;13.95;12.85;;;;;;;;;;4998594;28;20029;-73
2023/07/24 13:48:27;;;;;;;14.50;13.20;;;;;;;;;;4999897;28;20143;-73
2023/07/24 13:50:53;;;;;;;13.65;12.55;;;;;;;;;;4998011;28;20042;-72
2023/07/24 13:53:18;;;;;;;14.80;13.25;;;;;;;;;;4999084;28;20053;-72
2023/07/24 13:55:44;;;;;;;13.82;12.73;;;;;;;;;;5000106;28;20042;-74
2023/07/24 13:58:09;;;;;;;13.90;12.35;;;;;;;;;;4998887;28;20062;-72
2023/07/24 14:00:35;;;;;;;13.70;12.60;;;;;;;;;;4999695;28;20046;-72
2023/07/24 14:03:01;;;;;;;13.40;12.30;;;;;;;;;;5000266;28;20034;-73
2023/07/24 14:05:26;;;;;;;13.80;12.65;;;;;;;;;;4994769;28;20145;-72
2023/07/24 14:07:52;;;;;;;13.85;12.55;;;;;;;;;;4994290;28;20030;-73
2023/07/24 14:10:17;;;;;;;12.70;11.57;;;;;;;;;;4996060;28;20123;-73
2023/07/24 14:12:43;;;;;;;13.73;12.40;;;;;;;;;;4977325;28;20073;-73
2023/07/24 14:15:09;;;;;;;12.73;11.73;;;;;;;;;;5000248;28;20089;-73